College Station, Arkansas
Current Conditions -  °F | °C
As of 9:53 AM on Friday 28 Nov 2014 (Local Time) from KLIT Reporting Station
Clear Clear  
Wind Chill: 38°   Ceiling: Unl
Heat Index: 44°   Visibility: 10mi
Dew Point: 31°   Wind: 12mph
Humidity: 60%   Direction: 170°S
Pressure: 30.36"   Gusts: NA
Location:  34.71°N, 92.22°W
Report Text: KLIT 281553Z 17010KT 10SM CLR 07/M01 A3036 RMK AO2 SLP283 T00671006
Loading
Personal Weather Stations






























Interactive Weather Map New forecast layout! Learn more

10-Day Weather Forecast

Advertisements
Track Severe Weather on mobile